Time;durP1;ratioP1;P1;durP2;ratioP2;P2;SDS_P1;SDS_P2;PMS_P1;PMS_P2;Temp;Humidity;BMP_temperature;BMP_pressure;BME280_temperature;BME280_humidity;BME280_pressure;Samples;Min_cycle;Max_cycle;Signal;HPM_P1;HPM_P2
2024/01/24 00:00:51;;;;;;;;;;;19.10;67.80;;;;;;7319069;19;10290;-61
2024/01/24 00:03:21;;;;;;;;;;;19.00;67.90;;;;;;7314229;19;9224;-60
2024/01/24 00:05:50;;;;;;;;;;;19.00;67.90;;;;;;7309530;19;9575;-60
2024/01/24 00:08:20;;;;;;;;;;;18.90;68.10;;;;;;7314502;19;9615;-59
2024/01/24 00:10:50;;;;;;;;;;;18.90;68.20;;;;;;7314841;19;9126;-60
2024/01/24 00:13:23;;;;;;;;;;;18.90;68.20;;;;;;7316632;19;9430;-60
2024/01/24 00:15:52;;;;;;;;;;;18.90;68.40;;;;;;7315299;19;9275;-60
2024/01/24 00:18:22;;;;;;;;;;;18.90;68.50;;;;;;7315699;19;9174;-63
2024/01/24 00:20:54;;;;;;;;;;;18.90;68.40;;;;;;7313467;19;9517;-60
2024/01/24 00:23:24;;;;;;;;;;;18.80;68.60;;;;;;7315247;19;9406;-60
2024/01/24 00:25:54;;;;;;;;;;;18.80;68.50;;;;;;7315507;19;9700;-60
2024/01/24 00:28:27;;;;;;;;;;;18.80;68.60;;;;;;7315072;19;9225;-60
2024/01/24 00:30:57;;;;;;;;;;;18.90;68.70;;;;;;7316231;19;9232;-59
2024/01/24 00:33:30;;;;;;;;;;;18.90;68.60;;;;;;7315708;19;9261;-59
2024/01/24 00:36:00;;;;;;;;;;;18.90;68.10;;;;;;7315821;19;9241;-60
2024/01/24 00:38:30;;;;;;;;;;;19.00;67.80;;;;;;7316159;19;9228;-60
2024/01/24 00:41:00;;;;;;;;;;;19.00;67.40;;;;;;7316392;19;9019;-60
2024/01/24 00:43:32;;;;;;;;;;;19.10;66.80;;;;;;7309710;19;9237;-60
2024/01/24 00:46:02;;;;;;;;;;;19.20;66.80;;;;;;7314912;19;9255;-60
2024/01/24 00:48:32;;;;;;;;;;;19.20;66.40;;;;;;7314843;19;9270;-60
2024/01/24 00:51:03;;;;;;;;;;;19.30;66.60;;;;;;7316328;19;9158;-60
2024/01/24 00:53:36;;;;;;;;;;;19.30;66.50;;;;;;7315456;19;9107;-60
2024/01/24 00:56:07;;;;;;;;;;;19.40;66.10;;;;;;7316124;19;9215;-60
2024/01/24 00:58:39;;;;;;;;;;;19.50;66.40;;;;;;7316903;19;9198;-60
2024/01/24 01:01:10;;;;;;;;;;;19.50;66.10;;;;;;7307992;19;9238;-60
2024/01/24 01:03:40;;;;;;;;;;;19.50;66.10;;;;;;7311318;19;9241;-60
2024/01/24 01:06:10;;;;;;;;;;;19.60;66.10;;;;;;7313442;19;9269;-60
2024/01/24 01:08:40;;;;;;;;;;;19.60;66.20;;;;;;7317647;19;9245;-60
2024/01/24 01:11:10;;;;;;;;;;;19.60;66.10;;;;;;7314194;19;9449;-60
2024/01/24 01:13:42;;;;;;;;;;;19.60;66.70;;;;;;7314147;19;9826;-59
2024/01/24 01:16:12;;;;;;;;;;;19.60;66.80;;;;;;7314793;19;9181;-60
2024/01/24 01:18:42;;;;;;;;;;;19.60;67.10;;;;;;7308200;19;9293;-59
2024/01/24 01:21:12;;;;;;;;;;;19.60;67.20;;;;;;7313101;19;9229;-59
2024/01/24 01:23:41;;;;;;;;;;;19.60;67.40;;;;;;7319497;19;9369;-59
2024/01/24 01:26:11;;;;;;;;;;;19.60;67.70;;;;;;7323914;19;9459;-59
2024/01/24 01:28:46;;;;;;;;;;;19.50;67.60;;;;;;7320536;19;8944;-59
2024/01/24 01:31:16;;;;;;;;;;;19.50;67.80;;;;;;7322557;19;9804;-59
2024/01/24 01:33:45;;;;;;;;;;;19.50;67.80;;;;;;7320968;19;9967;-60
2024/01/24 01:36:15;;;;;;;;;;;19.40;68.00;;;;;;7323242;19;9031;-60
2024/01/24 01:38:45;;;;;;;;;;;19.40;68.00;;;;;;7314234;19;9348;-60
2024/01/24 01:41:15;;;;;;;;;;;19.40;68.10;;;;;;7320180;19;9231;-60
2024/01/24 01:43:49;;;;;;;;;;;19.30;68.00;;;;;;7320576;19;9232;-60
2024/01/24 01:46:21;;;;;;;;;;;19.30;68.00;;;;;;7321520;19;9564;-60
2024/01/24 01:48:53;;;;;;;;;;;19.30;68.40;;;;;;7321012;19;10072;-60
2024/01/24 01:51:23;;;;;;;;;;;19.30;68.50;;;;;;7320790;19;9469;-60
2024/01/24 01:53:53;;;;;;;;;;;19.20;68.60;;;;;;7320564;19;9316;-59
2024/01/24 01:56:25;;;;;;;;;;;19.20;68.50;;;;;;7318933;19;9242;-60
2024/01/24 01:58:59;;;;;;;;;;;19.10;68.60;;;;;;7319303;19;9710;-59
2024/01/24 02:01:29;;;;;;;;;;;19.10;68.80;;;;;;7319043;19;9197;-60
2024/01/24 02:04:00;;;;;;;;;;;19.10;68.90;;;;;;7320442;19;9680;-60
2024/01/24 02:06:30;;;;;;;;;;;19.00;68.70;;;;;;7320298;19;9197;-60
2024/01/24 02:09:00;;;;;;;;;;;19.00;68.90;;;;;;7322104;19;10191;-60
2024/01/24 02:11:30;;;;;;;;;;;19.00;68.90;;;;;;7318837;19;9254;-60
2024/01/24 02:14:03;;;;;;;;;;;19.00;68.80;;;;;;7321121;19;9230;-60
2024/01/24 02:16:33;;;;;;;;;;;18.90;68.90;;;;;;7320711;19;9327;-60
2024/01/24 02:19:04;;;;;;;;;;;18.90;69.00;;;;;;7319440;19;9474;-60
2024/01/24 02:21:34;;;;;;;;;;;18.90;68.90;;;;;;7321835;19;9468;-60
2024/01/24 02:24:04;;;;;;;;;;;18.90;68.90;;;;;;7319744;19;9976;-60
2024/01/24 02:26:36;;;;;;;;;;;18.90;69.00;;;;;;7320011;19;10074;-60
2024/01/24 02:29:06;;;;;;;;;;;18.90;68.90;;;;;;7319219;19;9534;-60
2024/01/24 02:31:36;;;;;;;;;;;18.90;69.10;;;;;;7317207;19;9225;-60
2024/01/24 02:34:06;;;;;;;;;;;18.90;69.00;;;;;;7316218;19;9302;-60
2024/01/24 02:36:35;;;;;;;;;;;18.90;69.00;;;;;;7319735;19;9288;-59
2024/01/24 02:39:06;;;;;;;;;;;18.90;68.90;;;;;;7318205;19;9287;-60
2024/01/24 02:41:42;;;;;;;;;;;19.00;68.60;;;;;;7317331;19;9221;-60
2024/01/24 02:44:11;;;;;;;;;;;19.10;67.90;;;;;;7320184;19;9124;-60
2024/01/24 02:46:41;;;;;;;;;;;19.10;67.60;;;;;;7319201;19;11108;-60
2024/01/24 02:49:11;;;;;;;;;;;19.20;67.70;;;;;;7318752;19;9690;-60
2024/01/24 02:51:41;;;;;;;;;;;19.20;67.10;;;;;;7316767;19;9225;-60
2024/01/24 02:54:11;;;;;;;;;;;19.30;67.00;;;;;;7320559;19;9202;-60
2024/01/24 02:56:43;;;;;;;;;;;19.30;66.80;;;;;;7317006;19;9024;-60
2024/01/24 02:59:13;;;;;;;;;;;19.40;67.00;;;;;;7318500;19;9090;-60
2024/01/24 03:01:44;;;;;;;;;;;19.50;66.60;;;;;;7317237;19;9217;-60
2024/01/24 03:04:14;;;;;;;;;;;19.50;66.60;;;;;;7309487;19;9490;-60
2024/01/24 03:06:44;;;;;;;;;;;19.60;66.10;;;;;;7320080;19;9238;-60
2024/01/24 03:09:13;;;;;;;;;;;19.60;66.30;;;;;;7315899;19;9651;-60
2024/01/24 03:11:46;;;;;;;;;;;19.60;66.20;;;;;;7318154;19;9241;-60
2024/01/24 03:14:16;;;;;;;;;;;19.60;66.30;;;;;;7317274;19;9221;-60
2024/01/24 03:16:45;;;;;;;;;;;19.60;66.70;;;;;;7315529;19;9185;-60
2024/01/24 03:19:14;;;;;;;;;;;19.60;66.50;;;;;;7310894;19;9155;-60
2024/01/24 03:21:43;;;;;;;;;;;19.60;66.80;;;;;;7319526;19;9474;-60
2024/01/24 03:24:13;;;;;;;;;;;19.60;66.90;;;;;;7319282;19;9197;-59
2024/01/24 03:26:42;;;;;;;;;;;19.60;67.00;;;;;;7319815;19;9060;-60
2024/01/24 03:29:13;;;;;;;;;;;19.60;67.00;;;;;;7319323;19;10003;-60
2024/01/24 03:31:45;;;;;;;;;;;19.60;67.00;;;;;;7318413;19;9248;-60
2024/01/24 03:34:14;;;;;;;;;;;19.50;67.00;;;;;;7319442;19;9217;-60
2024/01/24 03:36:47;;;;;;;;;;;19.50;67.10;;;;;;7318535;19;9372;-60
2024/01/24 03:39:16;;;;;;;;;;;19.50;67.10;;;;;;7318040;19;9262;-60
2024/01/24 03:41:45;;;;;;;;;;;19.40;67.70;;;;;;7318011;19;9256;-60
2024/01/24 03:44:17;;;;;;;;;;;19.40;67.20;;;;;;7319118;19;9256;-60
2024/01/24 03:46:46;;;;;;;;;;;19.40;67.20;;;;;;7318004;19;9221;-60
2024/01/24 03:49:15;;;;;;;;;;;19.30;67.10;;;;;;7319083;19;9253;-60
2024/01/24 03:51:44;;;;;;;;;;;19.30;67.20;;;;;;7318091;19;9023;-60
2024/01/24 03:54:13;;;;;;;;;;;19.30;67.30;;;;;;7317331;19;9237;-60
2024/01/24 03:56:43;;;;;;;;;;;19.20;67.30;;;;;;7316158;19;9205;-60
2024/01/24 03:59:12;;;;;;;;;;;19.20;67.40;;;;;;7319916;19;9064;-60
2024/01/24 04:01:43;;;;;;;;;;;19.20;67.40;;;;;;7317226;19;9511;-60
2024/01/24 04:04:12;;;;;;;;;;;19.10;67.30;;;;;;7317709;19;9364;-60
2024/01/24 04:06:43;;;;;;;;;;;19.10;67.40;;;;;;7316612;19;9193;-60
2024/01/24 04:09:12;;;;;;;;;;;19.10;67.50;;;;;;7315012;19;9237;-60
2024/01/24 04:11:41;;;;;;;;;;;19.10;67.50;;;;;;7316617;19;9261;-60
2024/01/24 04:14:10;;;;;;;;;;;19.00;67.40;;;;;;7314822;19;9133;-60
2024/01/24 04:16:43;;;;;;;;;;;19.00;67.40;;;;;;7317657;19;9238;-60
2024/01/24 04:19:13;;;;;;;;;;;19.00;67.40;;;;;;7316120;19;9631;-60
2024/01/24 04:21:44;;;;;;;;;;;19.00;67.90;;;;;;7315389;19;9249;-60
2024/01/24 04:24:14;;;;;;;;;;;18.90;67.30;;;;;;7315227;19;9261;-60
2024/01/24 04:26:44;;;;;;;;;;;18.90;67.40;;;;;;7316128;19;10074;-60
2024/01/24 04:29:16;;;;;;;;;;;18.90;67.20;;;;;;7315050;19;10224;-60
2024/01/24 04:31:48;;;;;;;;;;;18.90;67.40;;;;;;7306220;19;9805;-60
2024/01/24 04:34:19;;;;;;;;;;;18.80;67.30;;;;;;7315844;19;9201;-60
2024/01/24 04:36:48;;;;;;;;;;;18.90;67.40;;;;;;7312325;19;9627;-60
2024/01/24 04:39:18;;;;;;;;;;;18.90;67.40;;;;;;7313818;19;9527;-60
2024/01/24 04:41:48;;;;;;;;;;;18.90;67.20;;;;;;7315294;19;9460;-60
2024/01/24 04:44:18;;;;;;;;;;;18.90;67.10;;;;;;7312833;19;9365;-60
2024/01/24 04:46:51;;;;;;;;;;;19.00;67.70;;;;;;7316257;19;9534;-60
2024/01/24 04:49:21;;;;;;;;;;;19.00;66.40;;;;;;7315494;19;9830;-60
2024/01/24 04:51:51;;;;;;;;;;;19.10;66.40;;;;;;7313393;19;9213;-60
2024/01/24 04:54:21;;;;;;;;;;;19.20;66.00;;;;;;7317073;19;9286;-60
2024/01/24 04:56:51;;;;;;;;;;;19.20;66.40;;;;;;7307349;19;9035;-60
2024/01/24 04:59:20;;;;;;;;;;;19.30;65.70;;;;;;7322623;19;9994;-60
2024/01/24 05:01:53;;;;;;;;;;;19.30;65.50;;;;;;7313832;19;10128;-60
2024/01/24 05:04:23;;;;;;;;;;;19.40;65.50;;;;;;7319686;19;9360;-60
2024/01/24 05:06:53;;;;;;;;;;;19.50;65.40;;;;;;7322230;19;8945;-60
2024/01/24 05:09:23;;;;;;;;;;;19.50;65.10;;;;;;7321263;19;9028;-60
2024/01/24 05:11:53;;;;;;;;;;;19.50;65.10;;;;;;7322139;19;9454;-60
2024/01/24 05:14:22;;;;;;;;;;;19.60;65.10;;;;;;7319563;19;9234;-60
2024/01/24 05:16:55;;;;;;;;;;;19.60;64.90;;;;;;7322904;19;9201;-60
2024/01/24 05:19:24;;;;;;;;;;;19.60;64.90;;;;;;7312221;19;10484;-60
2024/01/24 05:21:54;;;;;;;;;;;19.60;65.10;;;;;;7321834;19;9971;-60
2024/01/24 05:24:24;;;;;;;;;;;19.60;65.10;;;;;;7321529;19;9015;-60
2024/01/24 05:26:54;;;;;;;;;;;19.60;65.30;;;;;;7321147;19;9012;-60
2024/01/24 05:29:23;;;;;;;;;;;19.60;65.20;;;;;;7314991;19;9312;-60
2024/01/24 05:31:56;;;;;;;;;;;19.60;65.40;;;;;;7319029;19;9297;-60
2024/01/24 05:34:26;;;;;;;;;;;19.50;65.30;;;;;;7323613;19;10475;-60
2024/01/24 05:36:55;;;;;;;;;;;19.50;65.30;;;;;;7321438;19;9509;-60
2024/01/24 05:39:27;;;;;;;;;;;19.50;65.30;;;;;;7323069;19;9182;-61
2024/01/24 05:41:57;;;;;;;;;;;19.50;65.40;;;;;;7320194;19;9294;-60
2024/01/24 05:44:27;;;;;;;;;;;19.40;65.40;;;;;;7321762;19;9177;-60
2024/01/24 05:46:59;;;;;;;;;;;19.40;65.40;;;;;;7323503;19;10663;-60
2024/01/24 05:49:29;;;;;;;;;;;19.40;66.00;;;;;;7313152;19;9298;-60
2024/01/24 05:51:58;;;;;;;;;;;19.30;65.40;;;;;;7321498;19;9023;-60
2024/01/24 05:54:28;;;;;;;;;;;19.30;65.40;;;;;;7322050;19;9334;-60
2024/01/24 05:56:58;;;;;;;;;;;19.30;65.40;;;;;;7321244;19;9232;-60
2024/01/24 05:59:28;;;;;;;;;;;19.30;65.50;;;;;;7321896;19;9226;-61
2024/01/24 06:02:01;;;;;;;;;;;19.20;65.50;;;;;;7321152;19;9162;-60
2024/01/24 06:04:30;;;;;;;;;;;19.10;65.50;;;;;;7316712;19;9214;-61
2024/01/24 06:07:00;;;;;;;;;;;19.10;65.50;;;;;;7320575;19;9169;-60
2024/01/24 06:09:30;;;;;;;;;;;19.10;65.50;;;;;;7320749;19;9507;-60
2024/01/24 06:12:01;;;;;;;;;;;19.10;65.50;;;;;;7320077;19;9027;-60
2024/01/24 06:14:31;;;;;;;;;;;19.00;65.40;;;;;;7320507;19;9265;-60
2024/01/24 06:17:03;;;;;;;;;;;19.00;65.40;;;;;;7321792;19;9248;-60
2024/01/24 06:19:33;;;;;;;;;;;19.00;65.40;;;;;;7320645;19;9202;-60
2024/01/24 06:22:03;;;;;;;;;;;18.90;65.30;;;;;;7320715;19;9543;-60
2024/01/24 06:24:33;;;;;;;;;;;18.90;65.30;;;;;;7320724;19;9293;-59
2024/01/24 06:27:03;;;;;;;;;;;18.90;65.30;;;;;;7316593;19;9376;-60
2024/01/24 06:29:33;;;;;;;;;;;18.90;65.30;;;;;;7316738;19;9251;-60
2024/01/24 06:32:06;;;;;;;;;;;18.90;65.20;;;;;;7314149;19;9260;-60
2024/01/24 06:34:35;;;;;;;;;;;18.90;65.10;;;;;;7319511;19;9369;-60
2024/01/24 06:37:06;;;;;;;;;;;18.90;65.00;;;;;;7318295;19;9647;-60
2024/01/24 06:39:35;;;;;;;;;;;18.90;64.90;;;;;;7319400;19;9059;-60
2024/01/24 06:42:04;;;;;;;;;;;18.90;64.80;;;;;;7310497;19;9229;-60
2024/01/24 06:44:33;;;;;;;;;;;19.00;64.70;;;;;;7313871;19;9430;-60
2024/01/24 06:47:04;;;;;;;;;;;19.10;65.10;;;;;;7320588;19;9230;-60
2024/01/24 06:49:34;;;;;;;;;;;19.10;64.40;;;;;;7321656;19;8936;-60
2024/01/24 06:52:03;;;;;;;;;;;19.20;64.40;;;;;;7321293;19;9234;-60
2024/01/24 06:54:35;;;;;;;;;;;19.30;64.20;;;;;;7320702;19;10726;-60
2024/01/24 06:57:04;;;;;;;;;;;19.30;63.80;;;;;;7321139;19;9796;-60
2024/01/24 06:59:34;;;;;;;;;;;19.30;63.70;;;;;;7314026;19;9241;-60
2024/01/24 07:02:06;;;;;;;;;;;19.40;63.70;;;;;;7314762;19;9291;-60
2024/01/24 07:04:38;;;;;;;;;;;19.50;63.50;;;;;;7312586;19;9020;-60
2024/01/24 07:07:07;;;;;;;;;;;19.50;63.30;;;;;;7319160;19;10008;-60
2024/01/24 07:09:37;;;;;;;;;;;19.60;63.30;;;;;;7320710;19;9681;-60
2024/01/24 07:12:07;;;;;;;;;;;19.60;63.10;;;;;;7319345;19;9180;-60
2024/01/24 07:14:36;;;;;;;;;;;19.70;63.10;;;;;;7319396;19;9328;-60
2024/01/24 07:17:08;;;;;;;;;;;19.70;62.90;;;;;;7318217;19;8948;-60
2024/01/24 07:19:37;;;;;;;;;;;19.70;62.80;;;;;;7318565;19;9284;-60
2024/01/24 07:22:06;;;;;;;;;;;19.70;62.70;;;;;;7307077;19;9414;-60
2024/01/24 07:24:35;;;;;;;;;;;19.70;62.80;;;;;;7318441;19;9475;-60
2024/01/24 07:27:04;;;;;;;;;;;19.70;62.70;;;;;;7319843;19;9219;-60
2024/01/24 07:29:33;;;;;;;;;;;19.70;62.60;;;;;;7320560;19;9225;-60
2024/01/24 07:32:03;;;;;;;;;;;19.70;62.60;;;;;;7317853;19;9173;-60
2024/01/24 07:34:35;;;;;;;;;;;19.60;62.50;;;;;;7309268;19;9371;-60
2024/01/24 07:37:05;;;;;;;;;;;19.60;62.50;;;;;;7315517;19;9319;-60
2024/01/24 07:39:34;;;;;;;;;;;19.60;62.40;;;;;;7317917;19;8948;-60
2024/01/24 07:42:04;;;;;;;;;;;19.60;62.40;;;;;;7318002;19;9232;-60
2024/01/24 07:44:34;;;;;;;;;;;19.50;62.40;;;;;;7314992;19;8948;-60
2024/01/24 07:47:04;;;;;;;;;;;19.50;62.40;;;;;;7314670;19;9915;-60
2024/01/24 07:49:36;;;;;;;;;;;19.50;62.40;;;;;;7317308;19;9440;-60
2024/01/24 07:52:07;;;;;;;;;;;19.40;62.30;;;;;;7313747;19;9960;-60
2024/01/24 07:54:37;;;;;;;;;;;19.40;62.30;;;;;;7316891;19;9284;-60
2024/01/24 07:57:07;;;;;;;;;;;19.40;62.30;;;;;;7315415;19;9027;-60
2024/01/24 07:59:38;;;;;;;;;;;19.30;62.30;;;;;;7310262;19;9335;-60
2024/01/24 08:02:07;;;;;;;;;;;19.30;62.20;;;;;;7316310;19;9659;-60
2024/01/24 08:04:40;;;;;;;;;;;19.30;62.20;;;;;;7306107;19;9240;-60
2024/01/24 08:07:10;;;;;;;;;;;19.20;62.20;;;;;;7318233;19;9299;-60
2024/01/24 08:09:40;;;;;;;;;;;19.20;62.20;;;;;;7317354;19;9122;-59
2024/01/24 08:12:10;;;;;;;;;;;19.20;62.30;;;;;;7310822;19;9233;-60
2024/01/24 08:14:40;;;;;;;;;;;19.10;62.30;;;;;;7315230;19;9229;-60
2024/01/24 08:17:10;;;;;;;;;;;19.10;62.30;;;;;;7315338;19;9265;-60
2024/01/24 08:19:43;;;;;;;;;;;19.10;62.30;;;;;;7318676;19;9269;-59
2024/01/24 08:22:14;;;;;;;;;;;19.10;62.30;;;;;;7316675;19;9246;-60
2024/01/24 08:24:44;;;;;;;;;;;19.00;62.30;;;;;;7319593;19;9380;-60
2024/01/24 08:27:14;;;;;;;;;;;19.00;62.30;;;;;;7316895;19;9011;-60
2024/01/24 08:29:43;;;;;;;;;;;19.00;62.20;;;;;;7319048;19;9146;-60
2024/01/24 08:32:13;;;;;;;;;;;19.00;62.20;;;;;;7309252;19;9248;-60
2024/01/24 08:34:46;;;;;;;;;;;19.00;62.30;;;;;;7325590;19;9280;-60
2024/01/24 08:37:16;;;;;;;;;;;18.90;62.10;;;;;;7322353;19;9485;-60
2024/01/24 08:39:46;;;;;;;;;;;19.00;62.10;;;;;;7324571;19;9318;-60
2024/01/24 08:42:13;;;;;;;;;;;18.90;62.00;;;;;;7323169;19;9357;-60
2024/01/24 08:44:43;;;;;;;;;;;18.90;62.00;;;;;;7324888;19;9779;-60
2024/01/24 08:47:12;;;;;;;;;;;18.90;62.00;;;;;;7322751;19;9422;-60
2024/01/24 08:49:42;;;;;;;;;;;18.90;61.90;;;;;;7323782;19;9377;-60
2024/01/24 08:52:14;;;;;;;;;;;19.00;61.90;;;;;;7324398;19;9849;-60
2024/01/24 08:54:45;;;;;;;;;;;19.00;61.80;;;;;;7323727;19;9305;-60
2024/01/24 08:57:15;;;;;;;;;;;19.10;61.80;;;;;;7323524;19;9250;-60
2024/01/24 08:59:45;;;;;;;;;;;19.10;61.60;;;;;;7323198;19;9987;-60
2024/01/24 09:02:14;;;;;;;;;;;19.20;61.50;;;;;;7323367;19;9906;-60
2024/01/24 09:04:46;;;;;;;;;;;19.30;61.40;;;;;;7322878;19;9328;-60
2024/01/24 09:07:19;;;;;;;;;;;19.30;61.30;;;;;;7323637;19;9250;-60
2024/01/24 09:09:51;;;;;;;;;;;19.40;61.30;;;;;;7321715;19;9657;-60
2024/01/24 09:12:21;;;;;;;;;;;19.40;61.20;;;;;;7320116;19;9471;-60
2024/01/24 09:14:50;;;;;;;;;;;19.50;61.10;;;;;;7324493;19;9830;-60
2024/01/24 09:17:19;;;;;;;;;;;19.50;61.00;;;;;;7321157;19;9275;-60
2024/01/24 09:19:48;;;;;;;;;;;19.60;60.90;;;;;;7322210;19;9280;-60
2024/01/24 09:22:20;;;;;;;;;;;19.60;60.80;;;;;;7321120;19;9344;-60
2024/01/24 09:24:49;;;;;;;;;;;19.70;60.80;;;;;;7324022;19;9690;-60
2024/01/24 09:27:18;;;;;;;;;;;19.70;60.60;;;;;;7320007;19;9190;-60
2024/01/24 09:29:47;;;;;;;;;;;19.70;60.50;;;;;;7323580;19;9996;-60
2024/01/24 09:32:16;;;;;;;;;;;19.70;60.50;;;;;;7318969;19;9567;-60
2024/01/24 09:34:45;;;;;;;;;;;19.70;60.40;;;;;;7321421;19;9245;-60
2024/01/24 09:37:14;;;;;;;;;;;19.70;60.30;;;;;;7322249;19;9016;-60
2024/01/24 09:39:46;;;;;;;;;;;19.70;60.30;;;;;;7324451;19;9229;-60
2024/01/24 09:42:22;;;;;;;;;;;19.70;60.20;;;;;;7322837;19;9170;-60
2024/01/24 09:44:53;;;;;;;;;;;19.70;60.20;;;;;;7322102;19;9236;-60
2024/01/24 09:47:24;;;;;;;;;;;19.70;60.90;;;;;;7313912;19;9456;-60
2024/01/24 09:49:54;;;;;;;;;;;19.60;60.20;;;;;;7318149;19;8948;-60
2024/01/24 09:52:26;;;;;;;;;;;19.60;60.30;;;;;;7323235;19;9158;-60
2024/01/24 09:55:04;;;;;;;;;;;19.60;60.20;;;;;;7322257;19;9393;-60
2024/01/24 09:57:35;;;;;;;;;;;19.60;60.20;;;;;;7321432;19;9019;-60
2024/01/24 10:00:04;;;;;;;;;;;19.50;60.20;;;;;;7316411;19;9286;-60
2024/01/24 10:02:33;;;;;;;;;;;19.50;60.20;;;;;;7316809;19;9249;-60
2024/01/24 10:05:03;;;;;;;;;;;19.50;60.20;;;;;;7313161;19;9265;-60
2024/01/24 10:07:33;;;;;;;;;;;19.50;60.20;;;;;;7320906;19;9209;-60
2024/01/24 10:10:12;;;;;;;;;;;19.50;60.20;;;;;;7323284;19;9194;-60
2024/01/24 10:12:44;;;;;;;;;;;19.50;60.20;;;;;;7320138;19;9319;-60
2024/01/24 10:15:14;;;;;;;;;;;19.40;60.20;;;;;;7322802;19;9328;-60
2024/01/24 10:17:46;;;;;;;;;;;19.40;60.20;;;;;;7319861;19;9573;-60
2024/01/24 10:20:16;;;;;;;;;;;19.30;60.20;;;;;;7322015;19;9030;-60
2024/01/24 10:22:45;;;;;;;;;;;19.30;60.20;;;;;;7319852;19;9219;-60
2024/01/24 10:25:19;;;;;;;;;;;19.30;60.20;;;;;;7321108;19;10100;-60
2024/01/24 10:27:49;;;;;;;;;;;19.30;60.20;;;;;;7322094;19;9205;-60
2024/01/24 10:30:19;;;;;;;;;;;19.20;60.20;;;;;;7320236;19;9232;-60
2024/01/24 10:32:50;;;;;;;;;;;19.20;60.20;;;;;;7321030;19;10086;-60
2024/01/24 10:35:20;;;;;;;;;;;19.20;60.20;;;;;;7320912;19;9491;-60
2024/01/24 10:37:50;;;;;;;;;;;19.20;60.30;;;;;;7319985;19;9162;-60
2024/01/24 10:40:23;;;;;;;;;;;19.20;60.20;;;;;;7320138;19;8952;-60
2024/01/24 10:42:59;;;;;;;;;;;19.20;60.30;;;;;;7319636;19;9269;-60
2024/01/24 10:45:32;;;;;;;;;;;19.10;60.20;;;;;;7321778;19;9446;-60
2024/01/24 10:48:03;;;;;;;;;;;19.10;60.20;;;;;;7321417;19;9983;-60
2024/01/24 10:50:35;;;;;;;;;;;19.10;60.20;;;;;;7320135;19;9453;-60
2024/01/24 10:53:06;;;;;;;;;;;19.10;60.30;;;;;;7319338;19;9570;-59
2024/01/24 10:55:40;;;;;;;;;;;19.10;60.30;;;;;;7315847;19;9095;-60
2024/01/24 10:58:13;;;;;;;;;;;19.10;60.20;;;;;;7318840;19;9296;-60
2024/01/24 11:00:43;;;;;;;;;;;19.00;60.20;;;;;;7322037;19;9245;-60
2024/01/24 11:03:13;;;;;;;;;;;19.00;60.20;;;;;;7318432;19;9315;-60
2024/01/24 11:05:49;;;;;;;;;;;19.00;60.20;;;;;;7313109;19;9273;-60
2024/01/24 11:08:29;;;;;;;;;;;19.00;60.30;;;;;;7320252;19;9205;-60
2024/01/24 11:11:10;;;;;;;;;;;19.00;60.20;;;;;;7320551;19;9538;-60
2024/01/24 11:13:40;;;;;;;;;;;19.00;60.20;;;;;;7317920;19;9201;-60
2024/01/24 11:16:31;;;;;;;;;;;18.90;60.10;;;;;;7316519;19;9215;-60
2024/01/24 11:19:20;;;;;;;;;;;18.90;60.10;;;;;;7308727;19;9637;-60
2024/01/24 11:21:50;;;;;;;;;;;18.90;60.10;;;;;;7316696;19;8952;-60
2024/01/24 11:24:50;;;;;;;;;;;18.90;60.00;;;;;;7310357;19;9221;-60
2024/01/24 11:27:32;;;;;;;;;;;19.00;60.00;;;;;;7318467;19;9186;-59
2024/01/24 11:30:16;;;;;;;;;;;19.00;60.00;;;;;;7318266;19;9225;-60
2024/01/24 11:33:04;;;;;;;;;;;19.00;59.80;;;;;;7306543;19;9433;-59
2024/01/24 11:35:40;;;;;;;;;;;19.10;59.90;;;;;;7319498;19;9674;-60
2024/01/24 11:38:37;;;;;;;;;;;19.20;59.90;;;;;;7319014;19;9331;-60
2024/01/24 11:41:24;;;;;;;;;;;19.30;59.80;;;;;;7318706;19;9186;-60
2024/01/24 11:43:58;;;;;;;;;;;19.30;59.70;;;;;;7320346;19;9402;-60
2024/01/24 11:46:28;;;;;;;;;;;19.40;59.70;;;;;;7319077;19;9213;-60
2024/01/24 11:49:08;;;;;;;;;;;19.40;59.50;;;;;;7319653;19;9190;-60
2024/01/24 11:51:38;;;;;;;;;;;19.50;59.50;;;;;;7308864;19;9312;-60
2024/01/24 11:54:10;;;;;;;;;;;19.50;59.40;;;;;;7320035;19;9213;-60
2024/01/24 11:56:40;;;;;;;;;;;19.50;59.30;;;;;;7318098;19;9206;-60
2024/01/24 11:59:12;;;;;;;;;;;19.60;59.10;;;;;;7319103;19;9227;-60
2024/01/24 12:01:42;;;;;;;;;;;19.60;59.10;;;;;;7317115;19;10062;-60
2024/01/24 12:04:12;;;;;;;;;;;19.60;58.90;;;;;;7317046;19;9254;-60
2024/01/24 12:06:42;;;;;;;;;;;19.70;58.90;;;;;;7318005;19;9127;-60
2024/01/24 12:09:12;;;;;;;;;;;19.60;58.80;;;;;;7310895;19;9246;-60
2024/01/24 12:11:42;;;;;;;;;;;19.60;58.80;;;;;;7317019;19;9253;-59
2024/01/24 12:14:15;;;;;;;;;;;19.60;58.80;;;;;;7315725;19;9600;-60
2024/01/24 12:16:45;;;;;;;;;;;19.60;58.80;;;;;;7318306;19;8948;-60
2024/01/24 12:19:17;;;;;;;;;;;19.60;58.80;;;;;;7306628;19;9023;-60
2024/01/24 12:21:47;;;;;;;;;;;19.60;58.80;;;;;;7314088;19;10215;-59
2024/01/24 12:24:18;;;;;;;;;;;19.50;58.70;;;;;;7304427;19;10151;-60
2024/01/24 12:26:47;;;;;;;;;;;19.50;58.80;;;;;;7306653;19;9494;-60
2024/01/24 12:29:21;;;;;;;;;;;19.50;58.80;;;;;;7314902;19;10076;-61
2024/01/24 12:31:50;;;;;;;;;;;19.50;58.80;;;;;;7310559;19;9221;-60
2024/01/24 12:34:23;;;;;;;;;;;19.40;58.90;;;;;;7313261;19;9237;-60
2024/01/24 12:36:55;;;;;;;;;;;19.40;58.90;;;;;;7316174;19;9648;-60
2024/01/24 12:39:28;;;;;;;;;;;19.40;59.00;;;;;;7316462;19;9154;-61
2024/01/24 12:41:58;;;;;;;;;;;19.30;59.00;;;;;;7314014;19;9293;-60
2024/01/24 12:44:32;;;;;;;;;;;19.30;59.00;;;;;;7311595;19;9308;-60
2024/01/24 12:47:03;;;;;;;;;;;19.30;59.10;;;;;;7315136;19;9323;-60
2024/01/24 12:49:33;;;;;;;;;;;19.30;59.20;;;;;;7307349;19;9288;-60
2024/01/24 12:52:02;;;;;;;;;;;19.20;59.20;;;;;;7314912;19;9486;-61
2024/01/24 12:54:32;;;;;;;;;;;19.20;59.30;;;;;;7314280;19;9800;-61
2024/01/24 12:57:02;;;;;;;;;;;19.20;59.30;;;;;;7310679;19;9324;-60
2024/01/24 12:59:34;;;;;;;;;;;19.20;59.40;;;;;;7314871;19;9504;-60
2024/01/24 13:02:04;;;;;;;;;;;19.20;59.50;;;;;;7312513;19;9178;-61
2024/01/24 13:04:34;;;;;;;;;;;19.20;59.60;;;;;;7313461;19;9951;-60
2024/01/24 13:07:04;;;;;;;;;;;19.20;59.70;;;;;;7314488;19;9177;-61
2024/01/24 13:09:34;;;;;;;;;;;19.30;59.90;;;;;;7312362;19;9353;-61
2024/01/24 13:12:04;;;;;;;;;;;19.20;59.80;;;;;;7316973;19;9258;-61
2024/01/24 13:14:36;;;;;;;;;;;19.20;59.90;;;;;;7315146;19;9545;-60
2024/01/24 13:17:07;;;;;;;;;;;19.20;60.00;;;;;;7316575;19;9205;-60
2024/01/24 13:19:37;;;;;;;;;;;19.30;60.00;;;;;;7318673;19;9418;-60
2024/01/24 13:22:07;;;;;;;;;;;19.20;60.00;;;;;;7321056;19;9278;-61
2024/01/24 13:24:37;;;;;;;;;;;19.30;60.10;;;;;;7321983;19;9324;-60
2024/01/24 13:27:07;;;;;;;;;;;19.30;60.10;;;;;;7320975;19;9274;-60
2024/01/24 13:29:40;;;;;;;;;;;19.30;60.00;;;;;;7316757;19;9194;-61
2024/01/24 13:32:09;;;;;;;;;;;19.20;60.10;;;;;;7319805;19;9833;-61
2024/01/24 13:34:39;;;;;;;;;;;19.20;60.10;;;;;;7320503;19;9299;-60
2024/01/24 13:37:09;;;;;;;;;;;19.30;60.30;;;;;;7319106;19;9673;-61
2024/01/24 13:39:39;;;;;;;;;;;19.30;60.20;;;;;;7321125;19;9019;-61
2024/01/24 13:42:09;;;;;;;;;;;19.20;60.20;;;;;;7320614;19;9027;-60
2024/01/24 13:44:42;;;;;;;;;;;19.30;60.30;;;;;;7319963;19;9924;-61
2024/01/24 13:47:12;;;;;;;;;;;19.30;60.40;;;;;;7321530;19;9261;-60
2024/01/24 13:49:43;;;;;;;;;;;19.30;60.30;;;;;;7319314;19;9414;-61
2024/01/24 13:52:13;;;;;;;;;;;19.20;60.30;;;;;;7313734;19;9249;-61
2024/01/24 13:54:43;;;;;;;;;;;19.20;60.40;;;;;;7317838;19;9363;-61
2024/01/24 13:57:12;;;;;;;;;;;19.20;60.40;;;;;;7322184;19;9345;-60
2024/01/24 13:59:45;;;;;;;;;;;19.20;60.40;;;;;;7321289;19;9475;-61
2024/01/24 14:02:14;;;;;;;;;;;19.20;60.40;;;;;;7320495;19;9336;-60
2024/01/24 14:04:44;;;;;;;;;;;19.20;60.40;;;;;;7320883;19;9270;-61
2024/01/24 14:07:14;;;;;;;;;;;19.10;60.40;;;;;;7321584;19;9270;-61
2024/01/24 14:09:44;;;;;;;;;;;19.10;60.40;;;;;;7316406;19;9618;-61
2024/01/24 14:12:14;;;;;;;;;;;19.10;60.40;;;;;;7317099;19;9229;-61
2024/01/24 14:14:46;;;;;;;;;;;19.10;60.50;;;;;;7320626;19;9498;-61
2024/01/24 14:17:16;;;;;;;;;;;19.10;60.50;;;;;;7320259;19;9221;-61
2024/01/24 14:19:45;;;;;;;;;;;19.10;60.50;;;;;;7313215;19;9433;-61
2024/01/24 14:22:17;;;;;;;;;;;19.10;60.50;;;;;;7316200;19;9519;-61
2024/01/24 14:24:47;;;;;;;;;;;19.00;60.50;;;;;;7320593;19;9461;-61
2024/01/24 14:27:20;;;;;;;;;;;19.10;60.50;;;;;;7316035;19;9567;-61
2024/01/24 14:29:54;;;;;;;;;;;19.00;60.50;;;;;;7316740;19;9292;-61
2024/01/24 14:32:25;;;;;;;;;;;19.00;60.50;;;;;;7310839;19;9255;-61
2024/01/24 14:34:54;;;;;;;;;;;19.00;60.50;;;;;;7320166;19;9217;-61
2024/01/24 14:37:25;;;;;;;;;;;19.00;60.60;;;;;;7320506;19;9291;-61
2024/01/24 14:39:54;;;;;;;;;;;19.00;60.60;;;;;;7320278;19;9360;-61
2024/01/24 14:42:25;;;;;;;;;;;18.90;60.60;;;;;;7318308;19;9055;-61
2024/01/24 14:44:58;;;;;;;;;;;18.90;60.60;;;;;;7320235;19;9270;-61
2024/01/24 14:47:28;;;;;;;;;;;18.90;60.60;;;;;;7312525;19;9212;-61
2024/01/24 14:49:58;;;;;;;;;;;18.90;60.60;;;;;;7320759;19;9732;-61